Observations for BOURNEMOUTH AIRPORT, United Kingdom (EGHH)

EGHH 211750Z 26010KT 9999 -RA BKN004 11/11 Q1008
EGHH 211720Z 25010KT 5000 -RA BR BKN004 11/11 Q1008 RERA
EGHH 211650Z 25009KT 2000 RA BR BKN004 11/11 Q1008  
EGHH 211620Z 00010KT 2000 -RADZ BR BKN003 BKN014 11/11 Q1008
EGHH 211550Z 24007KT 4000 -RA BR FEW003 BKN012 10/10 Q1008  
EGHH 211520Z 22006KT 4000 -RA BR FEW003 SCT011 BKN020 10/10 Q1008   
EGHH 211450Z 21005KT 5000 -RA BR FEW003 SCT014 BKN022 10/10 Q1009   
EGHH 211350Z 16002KT 3000 -RA BR FEW003 SCT016 BKN035 10/09 Q1009 RERA  
EGHH 211320Z 15004KT 4000 -RA BR FEW003 SCT013 BKN021 09/09 Q1009 RERA  
EGHH 211250Z VRB09KT 4000 RA BR OVC003 09/08 Q1010  
EGHH 211220Z 15012KT 6000 RA OVC003 08/08 Q1010 
EGHH 211150Z 14012KT 4000 RA BR OVC003 07/07 Q1011  
EGHH 211120Z 14014KT 5000 RA BR OVC003 07/07 Q1011  
EGHH 211050Z 14011KT 3500 RA BR OVC003 07/06 Q1012  
EGHH 211020Z 14011KT 3000 RA BR OVC003 06/06 Q1012  
EGHH 210950Z 10006KT 3000 RA BR OVC003 05/05 Q1013  
EGHH 210920Z 10007KT 2000 -RA BR OVC003 04/04 Q1013 
EGHH 210850Z 12009KT 2500 -RA BR BKN003 04/04 Q1013 
EGHH 210820Z 11007KT 1500 -DZ BR BKN006 04/03 Q1014 
EGHH 210750Z 12005KT 1500 -RA BR BKN006 04/04 Q1014 
EGHH 210720Z 12004KT 7000 SCT010 BKN023 04/03 Q1014 
EGHH 210650Z 12004KT 8000 SCT010 BKN023 03/03 Q1014 
EGHH 210620Z VRB03KT 6000 SCT010 BKN024 03/03 Q1014 
EGHH 210550Z VRB01KT 9000 FEW010 SCT027 03/02 Q1010 
EGHH 210550Z VRB01KT 9000 FEW010 SCT027 03/02 Q1014
EGHH 202150Z 01010KT 9999 BKN009 04/03 Q1010
EGHH 202120Z 34010KT 9999 BKN017 05/03 Q1009
EGHH 202050Z 33007KT 9999 BKN020 05/04 Q1008
EGHH 202020Z 35011KT 9999 FEW008 06/05 Q1007
EGHH 201950Z 32009KT 9999 BKN037 06/05 Q1006
EGHH 201920Z 33009KT 9999 FEW008 BKN039 08/07 Q1004 
EGHH 201850Z 34015KT 9000 FEW008 BKN014 08/07 Q1003 
EGHH 201820Z 31015KT 260V340 9999 BKN017 10/08 Q1002
EGHH 201750Z 30014KT 9999 BKN017 10/08 Q1001
EGHH 201720Z 30012KT 9999 SCT016 10/08 Q1000